Time;durP1;ratioP1;P1;durP2;ratioP2;P2;SDS_P1;SDS_P2;PMS_P1;PMS_P2;Temp;Humidity;BMP_temperature;BMP_pressure;BME280_temperature;BME280_humidity;BME280_pressure;Samples;Min_cycle;Max_cycle;Signal;HPM_P1;HPM_P2
2021/12/01 00:00:28;;;;;;;12.00;4.93;;;;;;;;;;5051752;28;20079;-60
2021/12/01 00:02:56;;;;;;;7.25;5.57;;;;;;;;;;5051633;28;20068;-60
2021/12/01 00:05:26;;;;;;;6.18;4.90;;;;;;;;;;5051299;28;20487;-60
2021/12/01 00:07:54;;;;;;;6.35;4.65;;;;;;;;;;5051505;28;20561;-60
2021/12/01 00:10:22;;;;;;;8.52;5.72;;;;;;;;;;5051703;28;20048;-60
2021/12/01 00:12:50;;;;;;;4.63;4.00;;;;;;;;;;5051810;28;20048;-60
2021/12/01 00:15:18;;;;;;;8.07;4.05;;;;;;;;;;5051645;28;20040;-60
2021/12/01 00:17:45;;;;;;;7.30;3.92;;;;;;;;;;5051534;28;20128;-60
2021/12/01 00:20:14;;;;;;;6.53;5.93;;;;;;;;;;5051622;28;20056;-60
2021/12/01 00:22:42;;;;;;;5.07;4.57;;;;;;;;;;5037744;28;20168;-60
2021/12/01 00:25:11;;;;;;;5.45;4.93;;;;;;;;;;5055469;28;20241;-61
2021/12/01 00:27:38;;;;;;;9.18;5.00;;;;;;;;;;5037450;28;20503;-61
2021/12/01 00:30:06;;;;;;;4.82;4.32;;;;;;;;;;5055551;28;20411;-60
2021/12/01 00:32:34;;;;;;;5.47;4.45;;;;;;;;;;5054621;28;20090;-60
2021/12/01 00:35:01;;;;;;;5.63;4.65;;;;;;;;;;5055295;28;20037;-59
2021/12/01 00:37:28;;;;;;;5.97;5.38;;;;;;;;;;5036881;28;20041;-60
2021/12/01 00:39:55;;;;;;;6.95;4.32;;;;;;;;;;5055050;28;20057;-60
2021/12/01 00:42:23;;;;;;;6.43;4.00;;;;;;;;;;5054964;28;20430;-60
2021/12/01 00:44:59;;;;;;;7.10;5.88;;;;;;;;;;5055072;28;20496;-60
2021/12/01 00:47:41;;;;;;;6.57;5.07;;;;;;;;;;5054658;28;20041;-60
2021/12/01 00:50:10;;;;;;;6.65;4.35;;;;;;;;;;5055302;28;20095;-59
2021/12/01 00:52:37;;;;;;;6.38;4.97;;;;;;;;;;5054641;28;20051;-60
2021/12/01 00:55:06;;;;;;;5.65;4.40;;;;;;;;;;5054549;28;20049;-60
2021/12/01 00:57:33;;;;;;;4.32;3.92;;;;;;;;;;5034615;28;20046;-60
2021/12/01 01:00:00;;;;;;;5.22;4.20;;;;;;;;;;5051435;28;20060;-60
2021/12/01 01:02:27;;;;;;;4.90;4.15;;;;;;;;;;5054788;28;20043;-59
2021/12/01 01:04:54;;;;;;;5.60;4.60;;;;;;;;;;5054471;28;20048;-59
2021/12/01 01:07:21;;;;;;;4.25;3.85;;;;;;;;;;5054436;28;20490;-58
2021/12/01 01:09:49;;;;;;;6.38;4.70;;;;;;;;;;5054211;28;20048;-58
2021/12/01 01:18:02;;;;;;;4.78;4.32;;;;;;;;;;5054390;28;20045;-58
2021/12/01 01:20:29;;;;;;;5.72;4.40;;;;;;;;;;5038132;28;20567;-58
2021/12/01 01:22:56;;;;;;;5.60;4.22;;;;;;;;;;5054159;28;20041;-59
2021/12/01 01:25:23;;;;;;;4.40;4.00;;;;;;;;;;5053769;28;20049;-59
2021/12/01 01:27:50;;;;;;;5.80;4.20;;;;;;;;;;5053998;28;20045;-58
2021/12/01 01:30:17;;;;;;;5.93;4.20;;;;;;;;;;5054359;28;20461;-59
2021/12/01 01:32:44;;;;;;;4.30;3.90;;;;;;;;;;5053762;28;20045;-59
2021/12/01 01:35:13;;;;;;;7.72;4.70;;;;;;;;;;5054219;28;20037;-59
2021/12/01 01:37:41;;;;;;;5.03;4.05;;;;;;;;;;5053702;28;20348;-58
2021/12/01 01:40:09;;;;;;;5.03;4.13;;;;;;;;;;5036396;28;20098;-58
2021/12/01 01:42:35;;;;;;;4.40;4.00;;;;;;;;;;5053572;28;20047;-59
2021/12/01 01:45:04;;;;;;;4.72;4.20;;;;;;;;;;5053588;28;20051;-60
2021/12/01 01:47:31;;;;;;;4.20;3.60;;;;;;;;;;5053486;28;20044;-58
2021/12/01 01:50:34;;;;;;;4.90;3.90;;;;;;;;;;5054153;28;20052;-59
2021/12/01 01:52:45;;;;;;;6.28;4.53;;;;;;;;;;5053446;28;20067;-59
2021/12/01 01:55:12;;;;;;;4.80;3.95;;;;;;;;;;5053690;28;20045;-59
2021/12/01 01:57:39;;;;;;;7.40;4.30;;;;;;;;;;5053164;28;20438;-61
2021/12/01 02:00:08;;;;;;;4.13;3.72;;;;;;;;;;5053409;28;20071;-59
2021/12/01 02:02:39;;;;;;;6.03;4.15;;;;;;;;;;5053447;28;20041;-59
2021/12/01 02:05:07;;;;;;;6.30;4.72;;;;;;;;;;5053434;28;20041;-60
2021/12/01 02:07:34;;;;;;;5.07;3.90;;;;;;;;;;5053276;28;20561;-61
2021/12/01 02:10:02;;;;;;;6.20;3.67;;;;;;;;;;5053333;28;20099;-59
2021/12/01 02:12:29;;;;;;;4.43;3.78;;;;;;;;;;5053140;28;20166;-60
2021/12/01 02:14:56;;;;;;;5.03;3.22;;;;;;;;;;5052917;28;20060;-60
2021/12/01 02:17:23;;;;;;;4.63;3.40;;;;;;;;;;5053171;28;20049;-60
2021/12/01 02:19:52;;;;;;;7.22;4.07;;;;;;;;;;5052900;28;20079;-60
2021/12/01 02:22:18;;;;;;;5.05;3.33;;;;;;;;;;5053614;28;20041;-59
2021/12/01 02:24:46;;;;;;;6.18;4.38;;;;;;;;;;5053103;28;20168;-60
2021/12/01 02:27:13;;;;;;;6.70;3.72;;;;;;;;;;5053264;28;20041;-60
2021/12/01 02:29:40;;;;;;;6.82;4.20;;;;;;;;;;5052742;28;20049;-60
2021/12/01 02:32:07;;;;;;;4.28;3.47;;;;;;;;;;5053089;28;20511;-59
2021/12/01 02:34:36;;;;;;;4.88;3.88;;;;;;;;;;5052812;28;20055;-59
2021/12/01 02:37:03;;;;;;;4.32;3.92;;;;;;;;;;5052222;28;20036;-58
2021/12/01 02:39:30;;;;;;;4.55;3.42;;;;;;;;;;5052945;28;20041;-60
2021/12/01 02:41:59;;;;;;;4.03;3.72;;;;;;;;;;5052645;28;20048;-59
2021/12/01 02:44:27;;;;;;;9.63;4.20;;;;;;;;;;5051981;28;20487;-54
2021/12/01 02:46:54;;;;;;;5.63;3.90;;;;;;;;;;5052180;28;20045;-59
2021/12/01 02:49:24;;;;;;;6.18;4.20;;;;;;;;;;5052040;28;20053;-60
2021/12/01 02:51:56;;;;;;;4.57;3.28;;;;;;;;;;5052636;28;20111;-59
2021/12/01 02:54:25;;;;;;;7.80;4.72;;;;;;;;;;5052650;28;20041;-64
2021/12/01 02:56:53;;;;;;;4.25;3.55;;;;;;;;;;5050674;28;20075;-57
2021/12/01 02:59:20;;;;;;;3.65;3.35;;;;;;;;;;5050326;28;20573;-59
2021/12/01 03:01:47;;;;;;;6.82;3.67;;;;;;;;;;5032701;28;20047;-60
2021/12/01 03:04:15;;;;;;;3.72;3.15;;;;;;;;;;5050194;28;20047;-61
2021/12/01 03:06:45;;;;;;;8.05;3.50;;;;;;;;;;5050522;28;20491;-60
2021/12/01 03:09:14;;;;;;;3.38;2.85;;;;;;;;;;5050186;28;20045;-58
2021/12/01 03:11:44;;;;;;;3.97;3.58;;;;;;;;;;5051989;28;20052;-58
2021/12/01 03:14:14;;;;;;;5.40;3.70;;;;;;;;;;5052083;28;20119;-59
2021/12/01 03:16:41;;;;;;;3.75;3.45;;;;;;;;;;5052411;28;20491;-57
2021/12/01 03:19:08;;;;;;;4.68;3.72;;;;;;;;;;5051970;28;20053;-58
2021/12/01 03:21:40;;;;;;;6.22;3.35;;;;;;;;;;5034550;28;20045;-60
2021/12/01 03:24:08;;;;;;;6.03;3.88;;;;;;;;;;5052164;28;20041;-57
2021/12/01 03:26:35;;;;;;;4.28;3.88;;;;;;;;;;5052178;28;20045;-59
2021/12/01 03:29:04;;;;;;;4.68;3.63;;;;;;;;;;5052188;28;20511;-59
2021/12/01 03:31:32;;;;;;;4.80;3.38;;;;;;;;;;5052130;28;20053;-57
2021/12/01 03:33:59;;;;;;;4.18;3.40;;;;;;;;;;5052152;28;20128;-60
2021/12/01 03:36:26;;;;;;;4.68;3.35;;;;;;;;;;5051790;28;20637;-59
2021/12/01 03:38:52;;;;;;;5.20;3.67;;;;;;;;;;5052398;28;20044;-59
2021/12/01 03:41:19;;;;;;;4.00;3.53;;;;;;;;;;5051823;28;20049;-59
2021/12/01 03:43:46;;;;;;;6.53;4.35;;;;;;;;;;5052046;28;20133;-57
2021/12/01 03:46:13;;;;;;;5.55;3.10;;;;;;;;;;5051853;28;20503;-59
2021/12/01 03:48:40;;;;;;;5.57;3.65;;;;;;;;;;5052184;28;20041;-64
2021/12/01 03:51:07;;;;;;;7.32;3.90;;;;;;;;;;5052315;28;20056;-60
2021/12/01 03:53:34;;;;;;;4.65;3.75;;;;;;;;;;5051628;28;20037;-59
2021/12/01 03:56:01;;;;;;;3.85;3.17;;;;;;;;;;5055399;28;20040;-59
2021/12/01 03:58:28;;;;;;;4.57;3.65;;;;;;;;;;5055413;28;20075;-60
2021/12/01 04:00:55;;;;;;;6.40;3.10;;;;;;;;;;5055732;28;20083;-63
2021/12/01 04:03:22;;;;;;;4.57;3.10;;;;;;;;;;5055202;28;20044;-59
2021/12/01 04:05:49;;;;;;;4.35;3.63;;;;;;;;;;5055491;28;20064;-59
2021/12/01 04:08:16;;;;;;;6.70;3.88;;;;;;;;;;5055378;28;20041;-59
2021/12/01 04:10:43;;;;;;;4.35;3.60;;;;;;;;;;5055570;28;20052;-59
2021/12/01 04:13:10;;;;;;;5.85;3.03;;;;;;;;;;5055625;28;20037;-59
2021/12/01 04:15:36;;;;;;;11.25;4.07;;;;;;;;;;5055287;28;20037;-59
2021/12/01 04:18:04;;;;;;;4.13;3.30;;;;;;;;;;5055129;28;20068;-58
2021/12/01 04:20:30;;;;;;;5.75;2.83;;;;;;;;;;5055005;28;20053;-59
2021/12/01 04:22:58;;;;;;;3.17;2.88;;;;;;;;;;5055523;28;20086;-59
2021/12/01 04:25:24;;;;;;;7.72;3.47;;;;;;;;;;5055503;28;20041;-59
2021/12/01 04:27:52;;;;;;;7.40;3.58;;;;;;;;;;5055301;28;20063;-59
2021/12/01 04:30:23;;;;;;;5.47;3.97;;;;;;;;;;5055176;28;20090;-59
2021/12/01 04:32:52;;;;;;;5.65;4.28;;;;;;;;;;5055471;28;20119;-59
2021/12/01 04:35:20;;;;;;;3.90;3.50;;;;;;;;;;5054791;28;20044;-59
2021/12/01 04:37:48;;;;;;;3.63;3.05;;;;;;;;;;5055343;28;20037;-59
2021/12/01 04:40:16;;;;;;;3.35;2.53;;;;;;;;;;5047137;28;20083;-58
2021/12/01 04:42:43;;;;;;;4.63;3.17;;;;;;;;;;5050490;28;20079;-56
2021/12/01 04:45:15;;;;;;;6.75;3.72;;;;;;;;;;5055043;28;20410;-59
2021/12/01 04:47:44;;;;;;;3.50;3.03;;;;;;;;;;5054753;28;20120;-58
2021/12/01 04:50:12;;;;;;;3.50;3.20;;;;;;;;;;5055442;28;20049;-60
2021/12/01 04:52:39;;;;;;;8.48;3.42;;;;;;;;;;5054430;28;20128;-60
2021/12/01 04:55:07;;;;;;;4.63;3.13;;;;;;;;;;5054850;28;20549;-59
2021/12/01 04:57:34;;;;;;;4.10;3.70;;;;;;;;;;5054418;28;20450;-59
2021/12/01 05:00:02;;;;;;;3.78;3.05;;;;;;;;;;5054422;28;20048;-59
2021/12/01 05:02:29;;;;;;;6.68;2.80;;;;;;;;;;5036775;28;20086;-60
2021/12/01 05:04:56;;;;;;;3.05;2.75;;;;;;;;;;5054568;28;20103;-59
2021/12/01 05:07:23;;;;;;;3.75;3.13;;;;;;;;;;5053719;28;20051;-60
2021/12/01 05:09:50;;;;;;;3.47;2.90;;;;;;;;;;5054321;28;20468;-59
2021/12/01 05:12:17;;;;;;;4.05;3.15;;;;;;;;;;5054563;28;20041;-59
2021/12/01 05:14:44;;;;;;;3.65;3.25;;;;;;;;;;5053964;28;20044;-59
2021/12/01 05:17:11;;;;;;;3.90;3.60;;;;;;;;;;5054669;28;20049;-59
2021/12/01 05:19:38;;;;;;;2.97;2.63;;;;;;;;;;5053965;28;20114;-58
2021/12/01 05:22:05;;;;;;;4.82;3.53;;;;;;;;;;5053949;28;20487;-59
2021/12/01 05:24:33;;;;;;;2.90;2.55;;;;;;;;;;5053991;28;20041;-59
2021/12/01 05:27:00;;;;;;;6.25;3.45;;;;;;;;;;5054224;28;20045;-59
2021/12/01 05:29:27;;;;;;;5.72;3.63;;;;;;;;;;5054102;28;20118;-59
2021/12/01 05:31:55;;;;;;;2.72;2.47;;;;;;;;;;5054052;28;20570;-59
2021/12/01 05:34:22;;;;;;;3.67;2.90;;;;;;;;;;5054178;28;20049;-59
2021/12/01 05:36:50;;;;;;;4.28;3.30;;;;;;;;;;5053608;28;20048;-59
2021/12/01 05:39:17;;;;;;;3.47;2.85;;;;;;;;;;5053739;28;20120;-59
2021/12/01 05:41:44;;;;;;;3.83;2.70;;;;;;;;;;5053579;28;20041;-59
2021/12/01 05:44:12;;;;;;;6.45;4.07;;;;;;;;;;5053657;28;20052;-62
2021/12/01 05:46:38;;;;;;;7.07;2.75;;;;;;;;;;5053539;28;20052;-59
2021/12/01 05:49:05;;;;;;;3.35;2.80;;;;;;;;;;5054016;28;20055;-59
2021/12/01 05:51:33;;;;;;;3.08;2.78;;;;;;;;;;5053684;28;20557;-59
2021/12/01 05:54:01;;;;;;;4.72;2.92;;;;;;;;;;5054012;28;20068;-58
2021/12/01 05:56:27;;;;;;;3.70;3.17;;;;;;;;;;5053227;28;20041;-59
2021/12/01 05:58:54;;;;;;;2.50;2.30;;;;;;;;;;5053602;28;20072;-58
2021/12/01 06:01:21;;;;;;;7.25;3.60;;;;;;;;;;5053531;28;20041;-59
2021/12/01 06:03:48;;;;;;;4.90;3.55;;;;;;;;;;5053358;28;20072;-58
2021/12/01 06:06:15;;;;;;;5.88;2.58;;;;;;;;;;5048695;28;20056;-58
2021/12/01 06:08:43;;;;;;;3.90;2.67;;;;;;;;;;5047300;28;20052;-59
2021/12/01 06:11:10;;;;;;;7.47;3.70;;;;;;;;;;5045275;28;20434;-65
2021/12/01 06:13:37;;;;;;;9.25;3.05;;;;;;;;;;5026207;28;20041;-62
2021/12/01 06:16:04;;;;;;;3.40;2.78;;;;;;;;;;5048326;28;20049;-62
2021/12/01 06:18:31;;;;;;;3.92;3.00;;;;;;;;;;5044081;28;20049;-62
2021/12/01 06:20:58;;;;;;;4.05;3.13;;;;;;;;;;5049550;28;20064;-60
2021/12/01 06:23:25;;;;;;;6.95;2.95;;;;;;;;;;5042786;28;20520;-61
2021/12/01 06:25:52;;;;;;;3.67;2.88;;;;;;;;;;5046921;28;20053;-62
2021/12/01 06:28:19;;;;;;;2.67;2.45;;;;;;;;;;5051136;28;20073;-62
2021/12/01 06:30:46;;;;;;;3.15;2.70;;;;;;;;;;5047413;28;20037;-63
2021/12/01 06:33:13;;;;;;;8.32;3.63;;;;;;;;;;5047459;28;20160;-63
2021/12/01 06:35:47;;;;;;;10.57;3.38;;;;;;;;;;5045983;28;20059;-63
2021/12/01 06:38:15;;;;;;;4.30;2.55;;;;;;;;;;5048584;28;20045;-64
2021/12/01 06:40:42;;;;;;;2.70;2.50;;;;;;;;;;5045643;28;20044;-64
2021/12/01 06:43:09;;;;;;;5.80;4.10;;;;;;;;;;5047267;28;20072;-63
2021/12/01 06:45:38;;;;;;;4.65;2.83;;;;;;;;;;5041393;28;20061;-65
2021/12/01 06:48:06;;;;;;;6.05;2.83;;;;;;;;;;5042594;28;20037;-71
2021/12/01 06:50:33;;;;;;;3.38;2.88;;;;;;;;;;5045339;28;20114;-68
2021/12/01 06:53:00;;;;;;;2.90;2.60;;;;;;;;;;5049211;28;20076;-68
2021/12/01 06:55:27;;;;;;;5.88;3.33;;;;;;;;;;5049541;28;20427;-68
2021/12/01 06:57:59;;;;;;;4.07;2.92;;;;;;;;;;5045854;28;20127;-66
2021/12/01 07:00:26;;;;;;;4.57;3.03;;;;;;;;;;5030364;28;20037;-66
2021/12/01 07:02:53;;;;;;;3.60;2.58;;;;;;;;;;5044608;28;20052;-63
2021/12/01 07:05:20;;;;;;;6.07;2.30;;;;;;;;;;5050724;28;20099;-61
2021/12/01 07:07:47;;;;;;;2.90;2.65;;;;;;;;;;5038715;28;20053;-62
2021/12/01 07:10:15;;;;;;;4.63;2.80;;;;;;;;;;5054945;28;20052;-62
2021/12/01 07:12:43;;;;;;;6.00;2.95;;;;;;;;;;5054025;28;20111;-60
2021/12/01 07:15:11;;;;;;;4.85;2.90;;;;;;;;;;5060317;28;20407;-61
2021/12/01 07:17:40;;;;;;;4.80;4.18;;;;;;;;;;5054201;28;20495;-62
2021/12/01 07:20:07;;;;;;;9.82;3.40;;;;;;;;;;5060116;28;20411;-62
2021/12/01 07:22:34;;;;;;;3.50;2.65;;;;;;;;;;5046294;28;20048;-63
2021/12/01 07:25:02;;;;;;;5.45;2.78;;;;;;;;;;5046012;28;20574;-62
2021/12/01 07:27:28;;;;;;;10.43;3.05;;;;;;;;;;5049921;28;20048;-62
2021/12/01 07:29:55;;;;;;;2.92;2.63;;;;;;;;;;5045703;28;20491;-62
2021/12/01 07:32:22;;;;;;;6.57;3.40;;;;;;;;;;5054700;28;20052;-62
2021/12/01 07:34:49;;;;;;;6.55;2.90;;;;;;;;;;5055596;28;20481;-62
2021/12/01 07:37:18;;;;;;;5.68;3.03;;;;;;;;;;5056136;28;20067;-62
2021/12/01 07:39:46;;;;;;;4.75;3.30;;;;;;;;;;5055799;28;20037;-63
2021/12/01 07:42:13;;;;;;;4.03;2.60;;;;;;;;;;5055450;28;20395;-62
2021/12/01 07:44:40;;;;;;;4.32;2.72;;;;;;;;;;5055803;28;20491;-62
2021/12/01 07:47:08;;;;;;;5.35;3.60;;;;;;;;;;5055486;28;20041;-62
2021/12/01 07:49:36;;;;;;;4.18;2.97;;;;;;;;;;5056047;28;20224;-62
2021/12/01 07:52:06;;;;;;;6.35;3.30;;;;;;;;;;5055528;28;20041;-62
2021/12/01 07:54:34;;;;;;;3.97;3.60;;;;;;;;;;5055641;28;20049;-62
2021/12/01 07:57:01;;;;;;;5.88;2.83;;;;;;;;;;5055051;28;20049;-61
2021/12/01 07:59:29;;;;;;;4.18;2.97;;;;;;;;;;5055485;28;20036;-61
2021/12/01 08:01:56;;;;;;;3.85;3.30;;;;;;;;;;5055355;28;20041;-63
2021/12/01 08:04:23;;;;;;;4.80;2.85;;;;;;;;;;5055044;28;20052;-63
2021/12/01 08:06:50;;;;;;;3.42;2.80;;;;;;;;;;5055403;28;20048;-60
2021/12/01 08:09:17;;;;;;;8.98;3.17;;;;;;;;;;5055179;28;20048;-64
2021/12/01 08:11:44;;;;;;;8.40;3.90;;;;;;;;;;5055232;28;20052;-61
2021/12/01 08:14:11;;;;;;;20.05;15.90;;;;;;;;;;5055286;28;20045;-60
2021/12/01 08:16:38;;;;;;;9.57;7.15;;;;;;;;;;5055572;28;20510;-64
2021/12/01 08:19:05;;;;;;;8.40;6.88;;;;;;;;;;5054983;28;20136;-64
2021/12/01 08:21:33;;;;;;;33.70;28.73;;;;;;;;;;5040592;28;20305;-64
2021/12/01 08:24:07;;;;;;;;;;;;;;;;;;5055356;28;20396;-61
2021/12/01 08:26:37;;;;;;;15.63;9.52;;;;;;;;;;5055572;28;19921;-63
2021/12/01 08:29:04;;;;;;;6.13;5.50;;;;;;;;;;5054989;28;20403;-63
2021/12/01 08:31:30;;;;;;;7.75;6.35;;;;;;;;;;5055181;28;20052;-62
2021/12/01 08:33:58;;;;;;;5.50;4.78;;;;;;;;;;5055489;28;20049;-62
2021/12/01 08:36:25;;;;;;;8.55;5.22;;;;;;;;;;5054803;28;20053;-62
2021/12/01 08:38:52;;;;;;;7.90;5.15;;;;;;;;;;5054828;28;20086;-63
2021/12/01 08:41:19;;;;;;;5.95;3.65;;;;;;;;;;5053739;28;20395;-62
2021/12/01 08:43:46;;;;;;;11.95;5.05;;;;;;;;;;5055332;28;20045;-63
2021/12/01 08:46:13;;;;;;;7.18;4.10;;;;;;;;;;5055148;28;20090;-63
2021/12/01 08:48:41;;;;;;;5.80;3.38;;;;;;;;;;5054847;28;20040;-63
2021/12/01 08:51:08;;;;;;;7.15;3.00;;;;;;;;;;5054862;28;20045;-62
2021/12/01 08:53:37;;;;;;;5.75;3.53;;;;;;;;;;5054689;28;20045;-62
2021/12/01 08:56:04;;;;;;;4.40;3.63;;;;;;;;;;5054582;28;20045;-63
2021/12/01 08:58:32;;;;;;;4.10;2.78;;;;;;;;;;5054895;28;20041;-63
2021/12/01 09:00:59;;;;;;;5.63;2.45;;;;;;;;;;5054750;28;20048;-63
2021/12/01 09:03:27;;;;;;;6.03;2.38;;;;;;;;;;5054354;28;20045;-63
2021/12/01 09:05:54;;;;;;;7.22;3.70;;;;;;;;;;5054758;28;20059;-63
2021/12/01 09:08:23;;;;;;;11.35;2.53;;;;;;;;;;5054170;28;20033;-63
2021/12/01 09:10:52;;;;;;;3.50;2.38;;;;;;;;;;5034749;28;20041;-63
2021/12/01 09:13:21;;;;;;;9.82;3.75;;;;;;;;;;5054092;28;20049;-63
2021/12/01 09:15:49;;;;;;;7.88;3.53;;;;;;;;;;5054242;28;20045;-62
2021/12/01 09:18:16;;;;;;;9.95;3.72;;;;;;;;;;5054456;28;20037;-62
2021/12/01 09:20:43;;;;;;;6.85;4.30;;;;;;;;;;5054238;28;20495;-62
2021/12/01 09:23:10;;;;;;;6.53;4.10;;;;;;;;;;5053823;28;20486;-63
2021/12/01 09:25:37;;;;;;;13.73;5.80;;;;;;;;;;5054131;28;20510;-63
2021/12/01 09:28:12;;;;;;;;;;;;;;;;;;5054712;28;20045;-59
2021/12/01 09:30:39;;;;;;;10.63;6.03;;;;;;;;;;5054201;28;19975;-62
2021/12/01 09:33:06;;;;;;;14.10;7.15;;;;;;;;;;5054242;28;20041;-61
2021/12/01 09:35:33;;;;;;;14.18;9.43;;;;;;;;;;5054126;28;20037;-61
2021/12/01 09:38:00;;;;;;;11.90;8.73;;;;;;;;;;5036212;28;20045;-61
2021/12/01 09:40:27;;;;;;;9.77;7.30;;;;;;;;;;5053893;28;20067;-61
2021/12/01 09:42:55;;;;;;;16.23;8.88;;;;;;;;;;5053887;28;20053;-60
2021/12/01 09:45:24;;;;;;;10.88;7.57;;;;;;;;;;5053699;28;20051;-62
2021/12/01 09:47:51;;;;;;;17.45;6.70;;;;;;;;;;5053588;28;20121;-65
2021/12/01 09:50:19;;;;;;;16.08;9.55;;;;;;;;;;5053675;28;20112;-63
2021/12/01 09:52:46;;;;;;;63.75;33.78;;;;;;;;;;5053534;28;20041;-63
2021/12/01 09:55:15;;;;;;;63.55;33.85;;;;;;;;;;5053611;28;20041;-64
2021/12/01 09:58:04;;;;;;;45.00;25.45;;;;;;;;;;5053910;28;20130;-64
2021/12/01 10:00:34;;;;;;;33.92;18.85;;;;;;;;;;5053635;28;20049;-63
2021/12/01 10:03:01;;;;;;;31.27;17.95;;;;;;;;;;5053351;28;20095;-62
2021/12/01 10:06:13;;;;;;;28.25;18.20;;;;;;;;;;5053576;28;20120;-61
2021/12/01 10:08:42;;;;;;;30.95;17.83;;;;;;;;;;5053637;28;20053;-61
2021/12/01 10:11:10;;;;;;;35.42;19.13;;;;;;;;;;5053637;28;20141;-64
2021/12/01 10:13:43;;;;;;;31.88;15.82;;;;;;;;;;5053077;28;20044;-59
2021/12/01 10:16:12;;;;;;;28.65;19.63;;;;;;;;;;5053539;28;20044;-63
2021/12/01 10:18:47;;;;;;;32.40;18.85;;;;;;;;;;5052947;28;20045;-63
2021/12/01 10:21:30;;;;;;;25.95;17.75;;;;;;;;;;5013611;28;20409;-63
2021/12/01 10:24:06;;;;;;;30.35;19.30;;;;;;;;;;5012793;28;20081;-61
2021/12/01 10:26:37;;;;;;;25.58;16.67;;;;;;;;;;5013459;28;20453;-62
2021/12/01 10:29:06;;;;;;;21.80;15.85;;;;;;;;;;5013236;28;20049;-62
2021/12/01 10:31:44;;;;;;;20.98;16.02;;;;;;;;;;5000616;28;20045;-61
2021/12/01 10:34:30;;;;;;;32.83;15.48;;;;;;;;;;5013078;28;20523;-62
2021/12/01 10:37:28;;;;;;;20.92;14.93;;;;;;;;;;5013660;28;20116;-65
2021/12/01 10:40:14;;;;;;;30.40;15.45;;;;;;;;;;5012939;28;20062;-62
2021/12/01 10:42:52;;;;;;;22.98;17.42;;;;;;;;;;5013221;28;20053;-62
2021/12/01 10:45:21;;;;;;;17.00;13.60;;;;;;;;;;5013412;28;20041;-62
2021/12/01 10:47:48;;;;;;;27.60;12.23;;;;;;;;;;5013428;28;20038;-62
2021/12/01 10:50:18;;;;;;;16.80;12.68;;;;;;;;;;5012575;28;20041;-64
2021/12/01 10:52:51;;;;;;;28.20;14.38;;;;;;;;;;5013399;28;20448;-60
2021/12/01 10:55:24;;;;;;;19.23;12.35;;;;;;;;;;5013078;28;20076;-62
2021/12/01 10:57:55;;;;;;;25.67;15.23;;;;;;;;;;5013145;28;20069;-62
2021/12/01 11:00:49;;;;;;;24.02;14.75;;;;;;;;;;5012975;28;20492;-63
2021/12/01 11:03:26;;;;;;;23.58;13.82;;;;;;;;;;5011833;28;20042;-61
2021/12/01 11:06:19;;;;;;;25.17;14.00;;;;;;;;;;5012400;28;20046;-62
2021/12/01 11:08:57;;;;;;;21.30;13.30;;;;;;;;;;5012878;28;20042;-61
2021/12/01 11:11:43;;;;;;;20.10;13.77;;;;;;;;;;5012739;28;20045;-62
2021/12/01 11:14:26;;;;;;;18.02;14.45;;;;;;;;;;5012998;28;20108;-62
2021/12/01 11:16:53;;;;;;;16.65;12.57;;;;;;;;;;5012506;28;20392;-62
2021/12/01 11:19:32;;;;;;;24.92;15.20;;;;;;;;;;5023754;28;20136;-64
2021/12/01 11:22:26;;;;;;;18.02;13.25;;;;;;;;;;5052104;28;20045;-62
2021/12/01 11:25:21;;;;;;;49.80;13.63;;;;;;;;;;5052437;28;20053;-62
2021/12/01 11:27:48;;;;;;;21.80;11.05;;;;;;;;;;5040104;28;20044;-59
2021/12/01 11:30:15;;;;;;;17.77;10.07;;;;;;;;;;5052617;28;20103;-59
2021/12/01 11:32:50;;;;;;;18.52;12.13;;;;;;;;;;5052004;28;20041;-62
2021/12/01 11:35:16;;;;;;;20.30;11.85;;;;;;;;;;5052044;28;20044;-61
2021/12/01 11:37:44;;;;;;;13.02;9.68;;;;;;;;;;5051993;28;20049;-62
2021/12/01 11:40:11;;;;;;;14.73;10.13;;;;;;;;;;5034132;28;20053;-62
2021/12/01 11:42:38;;;;;;;15.15;10.32;;;;;;;;;;5051791;28;20507;-63
2021/12/01 11:45:05;;;;;;;15.68;9.77;;;;;;;;;;5051811;28;20057;-63
2021/12/01 11:47:32;;;;;;;42.33;11.88;;;;;;;;;;5034308;28;20056;-62
2021/12/01 11:50:02;;;;;;;12.88;8.80;;;;;;;;;;5051948;28;20041;-61
2021/12/01 11:52:37;;;;;;;15.02;9.63;;;;;;;;;;5052051;28;20034;-62
2021/12/01 11:55:04;;;;;;;9.20;8.00;;;;;;;;;;5033845;28;20048;-61
2021/12/01 11:57:39;;;;;;;17.40;10.25;;;;;;;;;;5052042;28;20120;-62
2021/12/01 12:00:09;;;;;;;17.98;7.82;;;;;;;;;;5051678;28;20055;-63
2021/12/01 12:02:38;;;;;;;9.77;6.65;;;;;;;;;;5051840;28;20049;-62
2021/12/01 12:05:15;;;;;;;7.65;5.82;;;;;;;;;;5034850;28;20172;-62
2021/12/01 12:07:44;;;;;;;11.85;6.80;;;;;;;;;;5051857;28;20120;-62
2021/12/01 12:10:19;;;;;;;10.95;7.68;;;;;;;;;;5051687;28;20041;-61
2021/12/01 12:13:00;;;;;;;12.75;8.60;;;;;;;;;;5051397;28;20510;-63
2021/12/01 12:15:50;;;;;;;22.27;10.65;;;;;;;;;;5052976;28;20041;-61
2021/12/01 12:18:35;;;;;;;12.93;6.75;;;;;;;;;;5055259;28;20057;-62
2021/12/01 12:21:15;;;;;;;13.68;7.93;;;;;;;;;;5055298;28;20045;-62
2021/12/01 12:23:44;;;;;;;14.60;7.18;;;;;;;;;;5055136;28;20044;-62
2021/12/01 12:26:12;;;;;;;13.65;6.85;;;;;;;;;;5038595;28;20040;-62
2021/12/01 12:28:42;;;;;;;10.55;8.70;;;;;;;;;;5037388;28;20044;-62
2021/12/01 12:31:18;;;;;;;13.90;7.78;;;;;;;;;;5055258;28;20044;-62
2021/12/01 12:33:57;;;;;;;16.98;7.85;;;;;;;;;;5054549;28;20040;-62
2021/12/01 12:36:54;;;;;;;10.95;7.55;;;;;;;;;;5055015;28;20136;-62
2021/12/01 12:39:28;;;;;;;12.15;7.65;;;;;;;;;;5053643;28;20041;-62
2021/12/01 12:41:55;;;;;;;8.98;7.32;;;;;;;;;;5054599;28;20075;-62
2021/12/01 12:44:37;;;;;;;12.88;8.18;;;;;;;;;;5054662;28;20488;-62
2021/12/01 12:47:23;;;;;;;12.55;7.20;;;;;;;;;;5055174;28;20069;-60
2021/12/01 12:49:52;;;;;;;12.98;7.78;;;;;;;;;;5054694;28;20045;-62
2021/12/01 12:52:25;;;;;;;10.77;6.80;;;;;;;;;;5055202;28;20392;-61
2021/12/01 12:55:06;;;;;;;12.63;7.18;;;;;;;;;;5054820;28;20041;-62
2021/12/01 12:57:51;;;;;;;7.93;6.05;;;;;;;;;;5055053;28;20056;-62
2021/12/01 13:00:41;;;;;;;18.45;8.85;;;;;;;;;;5054842;28;20045;-62
2021/12/01 13:03:17;;;;;;;9.30;6.57;;;;;;;;;;5055077;28;20136;-62
2021/12/01 13:05:45;;;;;;;12.82;8.40;;;;;;;;;;5054450;28;20045;-62
2021/12/01 13:08:34;;;;;;;11.23;7.72;;;;;;;;;;5054655;28;20041;-62
2021/12/01 13:11:07;;;;;;;9.15;7.07;;;;;;;;;;5054244;28;20033;-62
2021/12/01 13:13:39;;;;;;;14.60;7.25;;;;;;;;;;5054862;28;20133;-61
2021/12/01 13:16:09;;;;;;;9.27;7.43;;;;;;;;;;5054038;28;20048;-60
2021/12/01 13:18:38;;;;;;;9.23;7.28;;;;;;;;;;5054502;28;20498;-60
2021/12/01 13:21:10;;;;;;;15.98;7.97;;;;;;;;;;5053400;28;20124;-61
2021/12/01 13:23:41;;;;;;;9.52;7.40;;;;;;;;;;5054154;28;20049;-59
2021/12/01 13:26:14;;;;;;;9.18;8.13;;;;;;;;;;5054385;28;20053;-59
2021/12/01 13:28:55;;;;;;;18.00;7.47;;;;;;;;;;5053573;28;20124;-63
2021/12/01 13:31:25;;;;;;;14.02;8.40;;;;;;;;;;5054448;28;20400;-61
2021/12/01 13:34:34;;;;;;;13.00;8.82;;;;;;;;;;5053823;28;20045;-61
2021/12/01 13:37:05;;;;;;;14.07;7.90;;;;;;;;;;5050675;28;20048;-60
2021/12/01 13:39:36;;;;;;;12.55;8.10;;;;;;;;;;5054421;28;20115;-63
2021/12/01 13:42:08;;;;;;;14.98;9.05;;;;;;;;;;5054105;28;20041;-59
2021/12/01 13:44:43;;;;;;;16.52;8.07;;;;;;;;;;5054180;28;20048;-63
2021/12/01 13:47:13;;;;;;;24.58;9.77;;;;;;;;;;5046171;28;20033;-60
2021/12/01 13:49:42;;;;;;;9.93;8.88;;;;;;;;;;5058161;28;20041;-61
2021/12/01 13:52:10;;;;;;;15.13;8.85;;;;;;;;;;5047702;28;20040;-61
2021/12/01 13:54:37;;;;;;;16.80;9.48;;;;;;;;;;5046242;28;20047;-61
2021/12/01 13:57:11;;;;;;;16.80;9.23;;;;;;;;;;5060534;28;20049;-62
2021/12/01 13:59:39;;;;;;;14.07;8.40;;;;;;;;;;5057627;28;20042;-62
2021/12/01 14:02:06;;;;;;;14.63;8.73;;;;;;;;;;5058145;28;20400;-63
2021/12/01 14:04:35;;;;;;;11.20;8.50;;;;;;;;;;5053872;28;20087;-61
2021/12/01 14:07:02;;;;;;;12.05;9.00;;;;;;;;;;5055448;28;20037;-60
2021/12/01 14:09:52;;;;;;;15.32;10.68;;;;;;;;;;5056283;28;20036;-62
2021/12/01 14:12:23;;;;;;;20.83;14.10;;;;;;;;;;5054043;28;20041;-59
2021/12/01 14:14:50;;;;;;;18.25;9.93;;;;;;;;;;5051798;28;20045;-61
2021/12/01 14:17:18;;;;;;;23.20;13.50;;;;;;;;;;5039116;28;20049;-63
2021/12/01 14:19:44;;;;;;;22.08;12.48;;;;;;;;;;5038746;28;20659;-60
2021/12/01 14:22:13;;;;;;;27.67;15.07;;;;;;;;;;5053101;28;20045;-59
2021/12/01 14:24:55;;;;;;;13.52;9.57;;;;;;;;;;5049468;28;20044;-59
2021/12/01 14:27:41;;;;;;;22.13;10.80;;;;;;;;;;5051123;28;20491;-62
2021/12/01 14:30:11;;;;;;;19.83;10.00;;;;;;;;;;5060217;28;20067;-60
2021/12/01 14:32:39;;;;;;;18.13;10.52;;;;;;;;;;5056822;28;20392;-61
2021/12/01 14:35:07;;;;;;;12.88;10.13;;;;;;;;;;5050417;28;20045;-61
2021/12/01 14:37:36;;;;;;;15.23;11.18;;;;;;;;;;5049973;28;20037;-60
2021/12/01 14:40:07;;;;;;;17.63;11.60;;;;;;;;;;5054392;28;20044;-61
2021/12/01 14:42:40;;;;;;;16.48;12.05;;;;;;;;;;5061579;28;20036;-61
2021/12/01 14:45:08;;;;;;;20.77;11.98;;;;;;;;;;5057358;28;20509;-60
2021/12/01 14:47:36;;;;;;;14.85;10.30;;;;;;;;;;5053941;28;20504;-60
2021/12/01 14:50:04;;;;;;;20.10;13.68;;;;;;;;;;5052585;28;20040;-60
2021/12/01 14:52:38;;;;;;;16.95;11.40;;;;;;;;;;5058199;28;20106;-58
2021/12/01 14:55:10;;;;;;;13.30;10.20;;;;;;;;;;5057136;28;20045;-60
2021/12/01 14:57:47;;;;;;;17.60;9.07;;;;;;;;;;5057116;28;20042;-59